sensor_id;sensor_type;location;lat;lon;timestamp;P1;durP1;ratioP1;P2;durP2;ratioP2
789;SDS011;378;48.844;9.156;2023-03-20T00:00:14;1.38;;;1.20;;
789;SDS011;378;48.844;9.156;2023-03-20T00:02:44;1.10;;;1.00;;
789;SDS011;378;48.844;9.156;2023-03-20T00:05:14;1.15;;;1.05;;
789;SDS011;378;48.844;9.156;2023-03-20T00:07:44;1.13;;;1.02;;
789;SDS011;378;48.844;9.156;2023-03-20T00:10:13;1.35;;;1.10;;
789;SDS011;378;48.844;9.156;2023-03-20T00:12:40;1.63;;;0.93;;
789;SDS011;378;48.844;9.156;2023-03-20T00:15:13;1.83;;;1.13;;
789;SDS011;378;48.844;9.156;2023-03-20T00:17:48;1.85;;;1.30;;
789;SDS011;378;48.844;9.156;2023-03-20T00:20:15;2.17;;;1.17;;
789;SDS011;378;48.844;9.156;2023-03-20T00:22:42;2.15;;;1.30;;
789;SDS011;378;48.844;9.156;2023-03-20T00:25:13;2.13;;;1.52;;
789;SDS011;378;48.844;9.156;2023-03-20T00:27:40;2.30;;;1.67;;
789;SDS011;378;48.844;9.156;2023-03-20T00:30:15;1.83;;;1.65;;
789;SDS011;378;48.844;9.156;2023-03-20T00:32:46;2.83;;;2.05;;
789;SDS011;378;48.844;9.156;2023-03-20T00:35:17;2.78;;;1.90;;
789;SDS011;378;48.844;9.156;2023-03-20T00:37:47;2.75;;;2.40;;
789;SDS011;378;48.844;9.156;2023-03-20T00:40:15;2.95;;;2.30;;
789;SDS011;378;48.844;9.156;2023-03-20T00:42:43;6.20;;;2.85;;
789;SDS011;378;48.844;9.156;2023-03-20T00:45:12;3.92;;;2.78;;
789;SDS011;378;48.844;9.156;2023-03-20T00:47:43;4.82;;;2.72;;
789;SDS011;378;48.844;9.156;2023-03-20T00:50:14;3.28;;;2.53;;
789;SDS011;378;48.844;9.156;2023-03-20T00:52:42;5.30;;;2.50;;
789;SDS011;378;48.844;9.156;2023-03-20T00:55:10;2.88;;;2.25;;
789;SDS011;378;48.844;9.156;2023-03-20T00:57:39;4.88;;;2.58;;
789;SDS011;378;48.844;9.156;2023-03-20T01:00:18;3.50;;;2.40;;
789;SDS011;378;48.844;9.156;2023-03-20T01:02:50;4.38;;;2.30;;
789;SDS011;378;48.844;9.156;2023-03-20T01:05:19;3.30;;;2.30;;
789;SDS011;378;48.844;9.156;2023-03-20T01:07:46;2.40;;;2.20;;
789;SDS011;378;48.844;9.156;2023-03-20T01:10:13;3.20;;;2.20;;
789;SDS011;378;48.844;9.156;2023-03-20T01:12:43;2.58;;;2.10;;
789;SDS011;378;48.844;9.156;2023-03-20T01:15:15;3.83;;;2.50;;
789;SDS011;378;48.844;9.156;2023-03-20T01:17:44;3.13;;;2.30;;
789;SDS011;378;48.844;9.156;2023-03-20T01:20:13;5.20;;;2.20;;
789;SDS011;378;48.844;9.156;2023-03-20T01:22:42;2.03;;;1.88;;
789;SDS011;378;48.844;9.156;2023-03-20T01:25:09;3.33;;;2.30;;
789;SDS011;378;48.844;9.156;2023-03-20T01:27:36;3.13;;;2.25;;
789;SDS011;378;48.844;9.156;2023-03-20T01:30:08;3.10;;;2.53;;
789;SDS011;378;48.844;9.156;2023-03-20T01:32:44;3.38;;;2.45;;
789;SDS011;378;48.844;9.156;2023-03-20T01:35:12;2.45;;;2.25;;
789;SDS011;378;48.844;9.156;2023-03-20T01:37:40;5.43;;;3.30;;
789;SDS011;378;48.844;9.156;2023-03-20T01:40:09;7.22;;;3.00;;
789;SDS011;378;48.844;9.156;2023-03-20T01:42:48;5.78;;;3.05;;
789;SDS011;378;48.844;9.156;2023-03-20T01:45:17;5.40;;;2.88;;
789;SDS011;378;48.844;9.156;2023-03-20T01:47:46;4.20;;;2.70;;
789;SDS011;378;48.844;9.156;2023-03-20T01:50:18;4.00;;;2.65;;
789;SDS011;378;48.844;9.156;2023-03-20T01:52:57;5.45;;;2.33;;
789;SDS011;378;48.844;9.156;2023-03-20T01:55:28;3.50;;;2.50;;
789;SDS011;378;48.844;9.156;2023-03-20T01:57:56;3.38;;;2.45;;
789;SDS011;378;48.844;9.156;2023-03-20T02:00:27;4.95;;;2.55;;
789;SDS011;378;48.844;9.156;2023-03-20T02:02:53;3.47;;;2.42;;
789;SDS011;378;48.844;9.156;2023-03-20T02:05:21;5.10;;;2.58;;
789;SDS011;378;48.844;9.156;2023-03-20T02:07:50;3.65;;;2.50;;
789;SDS011;378;48.844;9.156;2023-03-20T02:10:27;3.08;;;2.58;;
789;SDS011;378;48.844;9.156;2023-03-20T02:12:54;3.30;;;2.65;;
789;SDS011;378;48.844;9.156;2023-03-20T02:15:24;3.03;;;2.42;;
789;SDS011;378;48.844;9.156;2023-03-20T02:17:55;3.47;;;2.33;;
789;SDS011;378;48.844;9.156;2023-03-20T02:20:26;3.97;;;2.67;;
789;SDS011;378;48.844;9.156;2023-03-20T02:23:18;2.33;;;1.70;;
789;SDS011;378;48.844;9.156;2023-03-20T02:26:14;2.22;;;1.80;;
789;SDS011;378;48.844;9.156;2023-03-20T02:32:01;1.77;;;1.13;;
789;SDS011;378;48.844;9.156;2023-03-20T02:34:53;1.60;;;1.10;;
789;SDS011;378;48.844;9.156;2023-03-20T02:37:40;2.20;;;1.20;;
789;SDS011;378;48.844;9.156;2023-03-20T02:40:20;1.30;;;1.10;;
789;SDS011;378;48.844;9.156;2023-03-20T02:42:56;1.08;;;0.90;;
789;SDS011;378;48.844;9.156;2023-03-20T02:45:28;1.20;;;1.10;;
789;SDS011;378;48.844;9.156;2023-03-20T02:48:01;1.10;;;1.00;;
789;SDS011;378;48.844;9.156;2023-03-20T02:50:40;1.58;;;1.20;;
789;SDS011;378;48.844;9.156;2023-03-20T02:53:18;1.92;;;1.13;;
789;SDS011;378;48.844;9.156;2023-03-20T02:55:54;1.10;;;1.00;;
789;SDS011;378;48.844;9.156;2023-03-20T02:58:29;1.92;;;1.10;;
789;SDS011;378;48.844;9.156;2023-03-20T03:01:05;1.73;;;1.25;;
789;SDS011;378;48.844;9.156;2023-03-20T03:03:38;1.40;;;1.30;;
789;SDS011;378;48.844;9.156;2023-03-20T03:06:09;1.10;;;1.00;;
789;SDS011;378;48.844;9.156;2023-03-20T03:08:46;1.33;;;1.20;;
789;SDS011;378;48.844;9.156;2023-03-20T03:11:17;0.90;;;0.90;;
789;SDS011;378;48.844;9.156;2023-03-20T03:13:45;0.77;;;0.77;;
789;SDS011;378;48.844;9.156;2023-03-20T03:16:16;1.40;;;1.10;;
789;SDS011;378;48.844;9.156;2023-03-20T03:18:48;0.77;;;0.77;;
789;SDS011;378;48.844;9.156;2023-03-20T03:21:19;1.08;;;0.90;;
789;SDS011;378;48.844;9.156;2023-03-20T03:23:49;1.35;;;1.00;;
789;SDS011;378;48.844;9.156;2023-03-20T03:26:18;1.10;;;0.80;;
789;SDS011;378;48.844;9.156;2023-03-20T03:28:50;0.93;;;0.90;;
789;SDS011;378;48.844;9.156;2023-03-20T03:31:20;1.00;;;0.93;;
789;SDS011;378;48.844;9.156;2023-03-20T03:33:50;0.90;;;0.90;;
789;SDS011;378;48.844;9.156;2023-03-20T03:36:23;2.65;;;0.80;;
789;SDS011;378;48.844;9.156;2023-03-20T03:38:59;1.42;;;0.90;;
789;SDS011;378;48.844;9.156;2023-03-20T03:41:33;2.08;;;0.70;;
789;SDS011;378;48.844;9.156;2023-03-20T03:44:05;0.60;;;0.60;;
789;SDS011;378;48.844;9.156;2023-03-20T03:46:37;0.80;;;0.80;;
789;SDS011;378;48.844;9.156;2023-03-20T03:49:07;1.52;;;0.90;;
789;SDS011;378;48.844;9.156;2023-03-20T03:51:38;0.88;;;0.70;;
789;SDS011;378;48.844;9.156;2023-03-20T03:54:10;0.98;;;0.70;;
789;SDS011;378;48.844;9.156;2023-03-20T03:56:41;1.00;;;0.80;;
789;SDS011;378;48.844;9.156;2023-03-20T03:59:12;0.90;;;0.90;;
789;SDS011;378;48.844;9.156;2023-03-20T04:01:46;1.52;;;0.88;;
789;SDS011;378;48.844;9.156;2023-03-20T04:04:15;0.73;;;0.60;;
789;SDS011;378;48.844;9.156;2023-03-20T04:06:43;1.10;;;1.00;;
789;SDS011;378;48.844;9.156;2023-03-20T04:09:11;2.55;;;1.10;;
789;SDS011;378;48.844;9.156;2023-03-20T04:11:38;0.90;;;0.90;;
789;SDS011;378;48.844;9.156;2023-03-20T04:14:04;1.00;;;0.90;;
789;SDS011;378;48.844;9.156;2023-03-20T04:16:31;1.25;;;0.90;;
789;SDS011;378;48.844;9.156;2023-03-20T04:18:58;1.10;;;1.00;;
789;SDS011;378;48.844;9.156;2023-03-20T04:21:25;1.35;;;1.00;;
789;SDS011;378;48.844;9.156;2023-03-20T04:23:52;3.08;;;1.00;;
789;SDS011;378;48.844;9.156;2023-03-20T04:26:21;1.20;;;1.10;;
789;SDS011;378;48.844;9.156;2023-03-20T04:28:48;1.15;;;1.05;;
789;SDS011;378;48.844;9.156;2023-03-20T04:31:15;1.20;;;1.10;;
789;SDS011;378;48.844;9.156;2023-03-20T04:33:43;1.38;;;1.02;;
789;SDS011;378;48.844;9.156;2023-03-20T04:36:10;1.52;;;1.08;;
789;SDS011;378;48.844;9.156;2023-03-20T04:38:37;1.13;;;1.02;;
789;SDS011;378;48.844;9.156;2023-03-20T04:41:04;1.70;;;1.10;;
789;SDS011;378;48.844;9.156;2023-03-20T04:43:33;2.42;;;1.05;;
789;SDS011;378;48.844;9.156;2023-03-20T04:46:00;1.73;;;1.02;;
789;SDS011;378;48.844;9.156;2023-03-20T04:48:27;1.75;;;1.10;;
789;SDS011;378;48.844;9.156;2023-03-20T04:50:53;1.42;;;1.15;;
789;SDS011;378;48.844;9.156;2023-03-20T04:53:20;1.40;;;1.20;;
789;SDS011;378;48.844;9.156;2023-03-20T04:55:47;1.33;;;1.10;;
789;SDS011;378;48.844;9.156;2023-03-20T04:58:15;1.65;;;1.20;;
789;SDS011;378;48.844;9.156;2023-03-20T05:00:43;3.00;;;1.13;;
789;SDS011;378;48.844;9.156;2023-03-20T05:03:10;1.38;;;1.27;;
789;SDS011;378;48.844;9.156;2023-03-20T05:05:37;1.42;;;1.10;;
789;SDS011;378;48.844;9.156;2023-03-20T05:08:04;1.75;;;1.10;;
789;SDS011;378;48.844;9.156;2023-03-20T05:10:31;2.33;;;1.52;;
789;SDS011;378;48.844;9.156;2023-03-20T05:12:58;1.90;;;1.30;;
789;SDS011;378;48.844;9.156;2023-03-20T05:15:25;2.20;;;1.20;;
789;SDS011;378;48.844;9.156;2023-03-20T05:17:53;1.55;;;1.02;;
789;SDS011;378;48.844;9.156;2023-03-20T05:20:20;0.80;;;0.80;;
789;SDS011;378;48.844;9.156;2023-03-20T05:22:47;1.83;;;0.82;;
789;SDS011;378;48.844;9.156;2023-03-20T05:25:14;1.00;;;0.63;;
789;SDS011;378;48.844;9.156;2023-03-20T05:27:42;2.15;;;1.10;;
789;SDS011;378;48.844;9.156;2023-03-20T05:30:10;1.85;;;1.10;;
789;SDS011;378;48.844;9.156;2023-03-20T05:32:38;0.82;;;0.82;;
789;SDS011;378;48.844;9.156;2023-03-20T05:35:07;1.08;;;0.80;;
789;SDS011;378;48.844;9.156;2023-03-20T05:37:35;1.95;;;1.10;;
789;SDS011;378;48.844;9.156;2023-03-20T05:40:02;0.90;;;0.65;;
789;SDS011;378;48.844;9.156;2023-03-20T05:42:30;1.00;;;0.90;;
789;SDS011;378;48.844;9.156;2023-03-20T05:44:57;1.23;;;0.95;;
789;SDS011;378;48.844;9.156;2023-03-20T05:47:24;1.10;;;1.00;;
789;SDS011;378;48.844;9.156;2023-03-20T05:49:51;1.50;;;1.10;;
789;SDS011;378;48.844;9.156;2023-03-20T05:52:19;1.25;;;0.70;;
789;SDS011;378;48.844;9.156;2023-03-20T05:54:46;5.47;;;1.25;;
789;SDS011;378;48.844;9.156;2023-03-20T05:57:13;2.05;;;1.13;;
789;SDS011;378;48.844;9.156;2023-03-20T05:59:41;1.60;;;1.00;;
789;SDS011;378;48.844;9.156;2023-03-20T06:02:08;1.27;;;0.90;;
789;SDS011;378;48.844;9.156;2023-03-20T06:04:35;1.00;;;0.80;;
789;SDS011;378;48.844;9.156;2023-03-20T06:07:01;1.40;;;0.82;;
789;SDS011;378;48.844;9.156;2023-03-20T06:09:31;1.42;;;1.02;;
789;SDS011;378;48.844;9.156;2023-03-20T06:11:58;3.17;;;1.02;;
789;SDS011;378;48.844;9.156;2023-03-20T06:14:25;1.00;;;0.90;;
789;SDS011;378;48.844;9.156;2023-03-20T06:16:52;1.25;;;1.10;;
789;SDS011;378;48.844;9.156;2023-03-20T06:19:19;2.22;;;1.27;;
789;SDS011;378;48.844;9.156;2023-03-20T06:21:46;2.58;;;1.00;;
789;SDS011;378;48.844;9.156;2023-03-20T06:24:13;2.22;;;1.23;;
789;SDS011;378;48.844;9.156;2023-03-20T06:26:42;2.22;;;1.20;;
789;SDS011;378;48.844;9.156;2023-03-20T06:29:08;3.85;;;1.10;;
789;SDS011;378;48.844;9.156;2023-03-20T06:31:35;2.22;;;1.02;;
789;SDS011;378;48.844;9.156;2023-03-20T06:34:02;1.85;;;1.10;;
789;SDS011;378;48.844;9.156;2023-03-20T06:36:29;1.27;;;1.10;;
789;SDS011;378;48.844;9.156;2023-03-20T06:38:56;1.70;;;1.15;;
789;SDS011;378;48.844;9.156;2023-03-20T06:41:24;2.08;;;1.02;;
789;SDS011;378;48.844;9.156;2023-03-20T06:43:52;1.30;;;0.88;;
789;SDS011;378;48.844;9.156;2023-03-20T06:46:19;1.05;;;1.00;;
789;SDS011;378;48.844;9.156;2023-03-20T06:48:46;3.97;;;0.98;;
789;SDS011;378;48.844;9.156;2023-03-20T06:51:13;1.15;;;0.90;;
789;SDS011;378;48.844;9.156;2023-03-20T06:53:40;1.17;;;0.88;;
789;SDS011;378;48.844;9.156;2023-03-20T06:56:08;0.70;;;0.70;;
789;SDS011;378;48.844;9.156;2023-03-20T06:58:35;1.25;;;0.80;;
789;SDS011;378;48.844;9.156;2023-03-20T07:01:08;1.48;;;0.90;;
789;SDS011;378;48.844;9.156;2023-03-20T07:03:37;1.85;;;0.95;;
789;SDS011;378;48.844;9.156;2023-03-20T07:06:04;1.83;;;0.88;;
789;SDS011;378;48.844;9.156;2023-03-20T07:08:31;1.38;;;0.80;;
789;SDS011;378;48.844;9.156;2023-03-20T07:10:58;0.70;;;0.70;;
789;SDS011;378;48.844;9.156;2023-03-20T07:13:26;2.85;;;0.80;;
789;SDS011;378;48.844;9.156;2023-03-20T07:15:53;1.25;;;0.93;;
789;SDS011;378;48.844;9.156;2023-03-20T07:18:23;1.50;;;1.02;;
789;SDS011;378;48.844;9.156;2023-03-20T07:20:50;1.08;;;0.98;;
789;SDS011;378;48.844;9.156;2023-03-20T07:23:17;1.38;;;0.90;;
789;SDS011;378;48.844;9.156;2023-03-20T07:25:44;1.27;;;1.00;;
789;SDS011;378;48.844;9.156;2023-03-20T07:28:12;1.65;;;1.25;;
789;SDS011;378;48.844;9.156;2023-03-20T07:30:38;3.22;;;1.10;;
789;SDS011;378;48.844;9.156;2023-03-20T07:33:06;1.27;;;0.90;;
789;SDS011;378;48.844;9.156;2023-03-20T07:35:34;2.10;;;1.00;;
789;SDS011;378;48.844;9.156;2023-03-20T07:38:03;1.13;;;1.00;;
789;SDS011;378;48.844;9.156;2023-03-20T07:40:30;2.70;;;1.00;;
789;SDS011;378;48.844;9.156;2023-03-20T07:42:57;1.55;;;0.90;;
789;SDS011;378;48.844;9.156;2023-03-20T07:45:25;2.40;;;1.15;;
789;SDS011;378;48.844;9.156;2023-03-20T07:47:52;1.45;;;0.93;;
789;SDS011;378;48.844;9.156;2023-03-20T07:50:18;3.00;;;1.05;;
789;SDS011;378;48.844;9.156;2023-03-20T07:52:47;1.80;;;1.00;;
789;SDS011;378;48.844;9.156;2023-03-20T07:55:15;0.80;;;0.80;;
789;SDS011;378;48.844;9.156;2023-03-20T07:57:42;1.80;;;1.00;;
789;SDS011;378;48.844;9.156;2023-03-20T08:00:09;2.47;;;0.90;;
789;SDS011;378;48.844;9.156;2023-03-20T08:02:37;1.10;;;0.80;;
789;SDS011;378;48.844;9.156;2023-03-20T08:05:04;3.58;;;1.00;;
789;SDS011;378;48.844;9.156;2023-03-20T08:07:31;1.48;;;0.98;;
789;SDS011;378;48.844;9.156;2023-03-20T08:10:00;1.10;;;0.90;;
789;SDS011;378;48.844;9.156;2023-03-20T08:12:27;0.70;;;0.70;;
789;SDS011;378;48.844;9.156;2023-03-20T08:14:54;3.58;;;0.98;;
789;SDS011;378;48.844;9.156;2023-03-20T08:17:21;1.60;;;0.77;;
789;SDS011;378;48.844;9.156;2023-03-20T08:19:48;1.20;;;0.88;;
789;SDS011;378;48.844;9.156;2023-03-20T08:22:14;1.52;;;0.90;;
789;SDS011;378;48.844;9.156;2023-03-20T08:24:42;4.78;;;1.00;;
789;SDS011;378;48.844;9.156;2023-03-20T08:27:10;0.98;;;0.98;;
789;SDS011;378;48.844;9.156;2023-03-20T08:29:36;2.22;;;1.17;;
789;SDS011;378;48.844;9.156;2023-03-20T08:32:03;2.75;;;0.90;;
789;SDS011;378;48.844;9.156;2023-03-20T08:34:31;5.38;;;1.20;;
789;SDS011;378;48.844;9.156;2023-03-20T08:36:58;3.13;;;1.17;;
789;SDS011;378;48.844;9.156;2023-03-20T08:39:25;1.63;;;1.10;;
789;SDS011;378;48.844;9.156;2023-03-20T08:41:52;1.17;;;1.00;;
789;SDS011;378;48.844;9.156;2023-03-20T08:44:20;1.55;;;0.95;;
789;SDS011;378;48.844;9.156;2023-03-20T08:46:47;1.35;;;0.98;;
789;SDS011;378;48.844;9.156;2023-03-20T08:49:14;1.85;;;1.20;;
789;SDS011;378;48.844;9.156;2023-03-20T08:51:41;1.20;;;1.00;;
789;SDS011;378;48.844;9.156;2023-03-20T08:54:08;1.77;;;1.27;;
789;SDS011;378;48.844;9.156;2023-03-20T08:56:35;2.03;;;1.33;;
789;SDS011;378;48.844;9.156;2023-03-20T08:59:02;4.75;;;1.40;;
789;SDS011;378;48.844;9.156;2023-03-20T09:01:30;1.77;;;1.20;;
789;SDS011;378;48.844;9.156;2023-03-20T09:03:57;2.00;;;1.20;;
789;SDS011;378;48.844;9.156;2023-03-20T09:06:24;2.78;;;1.30;;
789;SDS011;378;48.844;9.156;2023-03-20T09:08:52;4.13;;;1.20;;
789;SDS011;378;48.844;9.156;2023-03-20T09:11:20;1.75;;;1.25;;
789;SDS011;378;48.844;9.156;2023-03-20T09:13:47;1.83;;;1.20;;
789;SDS011;378;48.844;9.156;2023-03-20T09:16:14;2.58;;;1.10;;
789;SDS011;378;48.844;9.156;2023-03-20T09:18:42;1.75;;;1.00;;
789;SDS011;378;48.844;9.156;2023-03-20T09:21:09;3.72;;;1.30;;
789;SDS011;378;48.844;9.156;2023-03-20T09:23:36;1.70;;;1.40;;
789;SDS011;378;48.844;9.156;2023-03-20T09:26:03;3.50;;;1.30;;
789;SDS011;378;48.844;9.156;2023-03-20T09:28:30;1.30;;;1.20;;
789;SDS011;378;48.844;9.156;2023-03-20T09:30:58;1.75;;;1.15;;
789;SDS011;378;48.844;9.156;2023-03-20T09:33:25;1.92;;;1.50;;
789;SDS011;378;48.844;9.156;2023-03-20T09:35:53;2.45;;;1.20;;
789;SDS011;378;48.844;9.156;2023-03-20T09:38:20;3.33;;;1.75;;
789;SDS011;378;48.844;9.156;2023-03-20T09:40:49;2.20;;;1.42;;
789;SDS011;378;48.844;9.156;2023-03-20T09:46:15;13.27;;;4.38;;
789;SDS011;378;48.844;9.156;2023-03-20T09:48:48;5.00;;;2.00;;
789;SDS011;378;48.844;9.156;2023-03-20T09:51:25;1.48;;;1.20;;
789;SDS011;378;48.844;9.156;2023-03-20T09:54:00;1.52;;;1.10;;
789;SDS011;378;48.844;9.156;2023-03-20T09:56:31;1.73;;;1.10;;
789;SDS011;378;48.844;9.156;2023-03-20T09:59:00;2.58;;;1.10;;
789;SDS011;378;48.844;9.156;2023-03-20T10:01:29;2.13;;;1.20;;
789;SDS011;378;48.844;9.156;2023-03-20T10:04:02;1.90;;;1.20;;
789;SDS011;378;48.844;9.156;2023-03-20T10:06:35;2.75;;;1.45;;
789;SDS011;378;48.844;9.156;2023-03-20T10:09:03;3.83;;;1.58;;
789;SDS011;378;48.844;9.156;2023-03-20T10:14:37;2.67;;;2.03;;
789;SDS011;378;48.844;9.156;2023-03-20T10:17:16;9.05;;;3.28;;
789;SDS011;378;48.844;9.156;2023-03-20T10:19:51;7.03;;;3.30;;
789;SDS011;378;48.844;9.156;2023-03-20T10:22:25;3.35;;;2.05;;
789;SDS011;378;48.844;9.156;2023-03-20T10:24:57;8.52;;;2.90;;
789;SDS011;378;48.844;9.156;2023-03-20T10:27:30;4.82;;;2.33;;
789;SDS011;378;48.844;9.156;2023-03-20T10:30:07;6.07;;;2.65;;
789;SDS011;378;48.844;9.156;2023-03-20T10:32:50;3.33;;;2.25;;
789;SDS011;378;48.844;9.156;2023-03-20T10:35:25;2.00;;;1.73;;
789;SDS011;378;48.844;9.156;2023-03-20T10:38:05;4.55;;;3.20;;
789;SDS011;378;48.844;9.156;2023-03-20T10:40:40;5.00;;;2.92;;
789;SDS011;378;48.844;9.156;2023-03-20T10:43:10;6.13;;;3.28;;
789;SDS011;378;48.844;9.156;2023-03-20T10:45:43;8.52;;;3.75;;
789;SDS011;378;48.844;9.156;2023-03-20T10:48:14;7.18;;;4.15;;
789;SDS011;378;48.844;9.156;2023-03-20T10:50:46;8.30;;;4.30;;
789;SDS011;378;48.844;9.156;2023-03-20T10:55:45;6.35;;;3.58;;
789;SDS011;378;48.844;9.156;2023-03-20T10:58:13;5.57;;;3.33;;
789;SDS011;378;48.844;9.156;2023-03-20T11:00:45;6.38;;;2.95;;
789;SDS011;378;48.844;9.156;2023-03-20T11:03:16;5.25;;;3.70;;
789;SDS011;378;48.844;9.156;2023-03-20T11:05:47;6.57;;;3.70;;
789;SDS011;378;48.844;9.156;2023-03-20T11:08:20;5.38;;;3.45;;
789;SDS011;378;48.844;9.156;2023-03-20T11:10:57;6.30;;;3.38;;
789;SDS011;378;48.844;9.156;2023-03-20T11:13:26;5.85;;;3.17;;
789;SDS011;378;48.844;9.156;2023-03-20T11:15:56;4.82;;;3.17;;
789;SDS011;378;48.844;9.156;2023-03-20T11:18:35;6.22;;;3.40;;
789;SDS011;378;48.844;9.156;2023-03-20T11:21:02;8.82;;;3.58;;
789;SDS011;378;48.844;9.156;2023-03-20T11:23:31;6.95;;;4.05;;
789;SDS011;378;48.844;9.156;2023-03-20T11:26:02;6.00;;;4.15;;
789;SDS011;378;48.844;9.156;2023-03-20T11:28:31;9.05;;;4.80;;
789;SDS011;378;48.844;9.156;2023-03-20T11:31:01;7.20;;;4.28;;
789;SDS011;378;48.844;9.156;2023-03-20T11:33:30;8.27;;;4.55;;
789;SDS011;378;48.844;9.156;2023-03-20T11:36:01;8.05;;;4.47;;
789;SDS011;378;48.844;9.156;2023-03-20T11:38:35;7.18;;;4.50;;
789;SDS011;378;48.844;9.156;2023-03-20T11:41:11;7.25;;;4.03;;
789;SDS011;378;48.844;9.156;2023-03-20T11:43:43;8.23;;;4.43;;
789;SDS011;378;48.844;9.156;2023-03-20T11:46:10;9.07;;;4.40;;
789;SDS011;378;48.844;9.156;2023-03-20T11:48:39;12.18;;;4.05;;
789;SDS011;378;48.844;9.156;2023-03-20T11:51:08;7.95;;;4.60;;
789;SDS011;378;48.844;9.156;2023-03-20T11:53:39;8.82;;;4.70;;
789;SDS011;378;48.844;9.156;2023-03-20T11:56:21;6.47;;;3.90;;
789;SDS011;378;48.844;9.156;2023-03-20T11:58:51;8.15;;;3.83;;
789;SDS011;378;48.844;9.156;2023-03-20T12:01:22;5.32;;;3.30;;
789;SDS011;378;48.844;9.156;2023-03-20T12:03:51;6.82;;;3.30;;
789;SDS011;378;48.844;9.156;2023-03-20T12:06:26;6.65;;;3.65;;
789;SDS011;378;48.844;9.156;2023-03-20T12:09:04;5.20;;;3.33;;
789;SDS011;378;48.844;9.156;2023-03-20T12:11:39;8.13;;;4.05;;
789;SDS011;378;48.844;9.156;2023-03-20T12:14:12;7.97;;;4.32;;
789;SDS011;378;48.844;9.156;2023-03-20T12:16:46;5.38;;;3.95;;
789;SDS011;378;48.844;9.156;2023-03-20T12:19:19;7.00;;;4.22;;
789;SDS011;378;48.844;9.156;2023-03-20T12:21:51;7.68;;;3.95;;
789;SDS011;378;48.844;9.156;2023-03-20T12:24:25;6.53;;;3.40;;
789;SDS011;378;48.844;9.156;2023-03-20T12:27:12;7.25;;;3.70;;
789;SDS011;378;48.844;9.156;2023-03-20T12:29:45;6.78;;;3.65;;
789;SDS011;378;48.844;9.156;2023-03-20T12:32:15;7.40;;;3.92;;
789;SDS011;378;48.844;9.156;2023-03-20T12:34:50;6.40;;;3.25;;
789;SDS011;378;48.844;9.156;2023-03-20T12:37:19;9.77;;;3.60;;
789;SDS011;378;48.844;9.156;2023-03-20T12:39:48;7.00;;;3.85;;
789;SDS011;378;48.844;9.156;2023-03-20T12:42:20;8.80;;;3.58;;
789;SDS011;378;48.844;9.156;2023-03-20T12:44:59;8.40;;;3.78;;
789;SDS011;378;48.844;9.156;2023-03-20T12:47:40;6.40;;;3.15;;
789;SDS011;378;48.844;9.156;2023-03-20T12:50:17;5.38;;;3.45;;
789;SDS011;378;48.844;9.156;2023-03-20T12:52:53;8.45;;;3.80;;
789;SDS011;378;48.844;9.156;2023-03-20T12:55:29;5.63;;;3.40;;
789;SDS011;378;48.844;9.156;2023-03-20T12:58:13;6.57;;;3.30;;
789;SDS011;378;48.844;9.156;2023-03-20T13:00:48;5.45;;;3.30;;
789;SDS011;378;48.844;9.156;2023-03-20T13:03:35;5.80;;;3.05;;
789;SDS011;378;48.844;9.156;2023-03-20T13:06:18;4.72;;;3.03;;
789;SDS011;378;48.844;9.156;2023-03-20T13:08:59;4.43;;;2.80;;
789;SDS011;378;48.844;9.156;2023-03-20T13:11:50;5.90;;;2.90;;
789;SDS011;378;48.844;9.156;2023-03-20T13:14:28;5.22;;;2.65;;
789;SDS011;378;48.844;9.156;2023-03-20T13:17:09;5.03;;;2.78;;
789;SDS011;378;48.844;9.156;2023-03-20T13:19:44;5.95;;;2.50;;
789;SDS011;378;48.844;9.156;2023-03-20T13:22:22;6.55;;;2.90;;
789;SDS011;378;48.844;9.156;2023-03-20T13:24:58;7.38;;;2.63;;
789;SDS011;378;48.844;9.156;2023-03-20T13:27:32;5.30;;;2.08;;
789;SDS011;378;48.844;9.156;2023-03-20T13:30:09;4.60;;;1.98;;
789;SDS011;378;48.844;9.156;2023-03-20T13:32:44;5.35;;;1.85;;
789;SDS011;378;48.844;9.156;2023-03-20T13:35:23;2.55;;;1.73;;
789;SDS011;378;48.844;9.156;2023-03-20T13:38:00;3.30;;;2.05;;
789;SDS011;378;48.844;9.156;2023-03-20T13:40:32;2.40;;;1.67;;
789;SDS011;378;48.844;9.156;2023-03-20T13:43:07;3.13;;;1.80;;
789;SDS011;378;48.844;9.156;2023-03-20T13:45:47;4.00;;;1.95;;
789;SDS011;378;48.844;9.156;2023-03-20T13:48:24;2.72;;;2.00;;
789;SDS011;378;48.844;9.156;2023-03-20T13:50:56;3.65;;;1.70;;
789;SDS011;378;48.844;9.156;2023-03-20T13:53:32;3.47;;;1.80;;
789;SDS011;378;48.844;9.156;2023-03-20T13:56:07;2.10;;;1.67;;
789;SDS011;378;48.844;9.156;2023-03-20T13:58:52;3.03;;;1.90;;
789;SDS011;378;48.844;9.156;2023-03-20T14:01:31;2.65;;;1.80;;
789;SDS011;378;48.844;9.156;2023-03-20T14:04:11;3.30;;;1.80;;
789;SDS011;378;48.844;9.156;2023-03-20T14:09:27;2.70;;;1.70;;
789;SDS011;378;48.844;9.156;2023-03-20T14:12:03;4.93;;;2.08;;
789;SDS011;378;48.844;9.156;2023-03-20T14:14:32;3.78;;;1.92;;
789;SDS011;378;48.844;9.156;2023-03-20T14:17:15;2.45;;;1.85;;
789;SDS011;378;48.844;9.156;2023-03-20T14:19:44;2.70;;;1.52;;
789;SDS011;378;48.844;9.156;2023-03-20T14:22:13;2.30;;;1.50;;
789;SDS011;378;48.844;9.156;2023-03-20T14:24:45;1.95;;;1.35;;
789;SDS011;378;48.844;9.156;2023-03-20T14:27:20;2.45;;;1.40;;
789;SDS011;378;48.844;9.156;2023-03-20T14:29:49;2.88;;;1.67;;
789;SDS011;378;48.844;9.156;2023-03-20T14:35:21;3.05;;;1.70;;
789;SDS011;378;48.844;9.156;2023-03-20T14:37:59;3.05;;;1.50;;
789;SDS011;378;48.844;9.156;2023-03-20T14:40:35;2.22;;;1.27;;
789;SDS011;378;48.844;9.156;2023-03-20T14:43:13;1.73;;;1.25;;
789;SDS011;378;48.844;9.156;2023-03-20T14:45:46;3.08;;;1.30;;
789;SDS011;378;48.844;9.156;2023-03-20T14:48:27;3.33;;;1.38;;
789;SDS011;378;48.844;9.156;2023-03-20T14:51:06;1.65;;;1.00;;
789;SDS011;378;48.844;9.156;2023-03-20T14:53:48;1.80;;;1.20;;
789;SDS011;378;48.844;9.156;2023-03-20T14:56:24;5.20;;;1.20;;
789;SDS011;378;48.844;9.156;2023-03-20T14:58:55;3.05;;;1.30;;
789;SDS011;378;48.844;9.156;2023-03-20T15:01:26;3.28;;;1.40;;
789;SDS011;378;48.844;9.156;2023-03-20T15:04:09;3.13;;;1.73;;
789;SDS011;378;48.844;9.156;2023-03-20T15:06:50;2.78;;;1.38;;
789;SDS011;378;48.844;9.156;2023-03-20T15:09:21;2.72;;;1.50;;
789;SDS011;378;48.844;9.156;2023-03-20T15:11:51;2.47;;;1.75;;
789;SDS011;378;48.844;9.156;2023-03-20T15:14:19;3.03;;;1.83;;
789;SDS011;378;48.844;9.156;2023-03-20T15:16:55;4.90;;;2.20;;
789;SDS011;378;48.844;9.156;2023-03-20T15:19:24;4.28;;;1.88;;
789;SDS011;378;48.844;9.156;2023-03-20T15:21:52;3.95;;;1.88;;
789;SDS011;378;48.844;9.156;2023-03-20T15:24:19;2.35;;;1.73;;
789;SDS011;378;48.844;9.156;2023-03-20T15:26:49;2.88;;;1.55;;
789;SDS011;378;48.844;9.156;2023-03-20T15:29:18;4.05;;;1.80;;
789;SDS011;378;48.844;9.156;2023-03-20T15:31:45;3.95;;;2.20;;
789;SDS011;378;48.844;9.156;2023-03-20T15:34:17;2.22;;;1.60;;
789;SDS011;378;48.844;9.156;2023-03-20T15:36:48;3.75;;;1.70;;
789;SDS011;378;48.844;9.156;2023-03-20T15:39:17;5.60;;;2.00;;
789;SDS011;378;48.844;9.156;2023-03-20T15:41:47;4.75;;;2.53;;
789;SDS011;378;48.844;9.156;2023-03-20T15:44:18;8.48;;;3.72;;
789;SDS011;378;48.844;9.156;2023-03-20T15:47:00;4.68;;;2.50;;
789;SDS011;378;48.844;9.156;2023-03-20T15:49:30;3.83;;;2.22;;
789;SDS011;378;48.844;9.156;2023-03-20T15:51:59;5.10;;;2.45;;
789;SDS011;378;48.844;9.156;2023-03-20T15:54:30;3.97;;;2.20;;
789;SDS011;378;48.844;9.156;2023-03-20T15:56:58;3.78;;;2.30;;
789;SDS011;378;48.844;9.156;2023-03-20T15:59:26;4.28;;;2.10;;
789;SDS011;378;48.844;9.156;2023-03-20T16:01:56;3.42;;;1.92;;
789;SDS011;378;48.844;9.156;2023-03-20T16:04:24;3.38;;;1.63;;
789;SDS011;378;48.844;9.156;2023-03-20T16:06:52;2.83;;;1.80;;
789;SDS011;378;48.844;9.156;2023-03-20T16:09:22;4.90;;;1.60;;
789;SDS011;378;48.844;9.156;2023-03-20T16:11:54;1.67;;;1.40;;
789;SDS011;378;48.844;9.156;2023-03-20T16:14:23;3.10;;;1.63;;
789;SDS011;378;48.844;9.156;2023-03-20T16:16:52;1.75;;;1.27;;
789;SDS011;378;48.844;9.156;2023-03-20T16:19:21;2.88;;;1.55;;
789;SDS011;378;48.844;9.156;2023-03-20T16:21:50;3.15;;;1.63;;
789;SDS011;378;48.844;9.156;2023-03-20T16:24:20;3.50;;;2.10;;